createdAt,value
2023-05-01T00:01:16.081Z,6.50
2023-05-01T00:06:18.604Z,6.30
2023-05-01T00:11:21.040Z,6.00
2023-05-01T00:16:23.930Z,6.20
2023-05-01T00:21:28.294Z,6.00
2023-05-01T00:26:31.568Z,6.00
2023-05-01T00:31:34.332Z,5.90
2023-05-01T00:36:36.772Z,5.80
2023-05-01T00:41:39.041Z,6.10
2023-05-01T00:46:42.519Z,6.10
2023-05-01T00:51:49.415Z,6.10
2023-05-01T00:56:52.541Z,5.90
2023-05-01T01:01:56.551Z,6.00
2023-05-01T01:07:06.253Z,6.10
2023-05-01T01:12:32.185Z,5.80
2023-05-01T01:17:51.941Z,5.80
2023-05-01T01:23:31.482Z,5.50
2023-05-01T01:28:46.486Z,5.20
2023-05-01T01:34:02.486Z,5.00
2023-05-01T01:39:14.550Z,5.20
2023-05-01T01:44:23.213Z,5.10
2023-05-01T01:49:27.507Z,5.10
2023-05-01T01:54:35.634Z,4.80
2023-05-01T01:59:39.247Z,4.50
2023-05-01T02:04:43.565Z,4.40
2023-05-01T02:09:46.791Z,4.30
2023-05-01T02:14:51.520Z,4.40
2023-05-01T02:19:55.662Z,4.50
2023-05-01T02:25:00.215Z,4.60
2023-05-01T02:30:02.578Z,4.30
2023-05-01T02:35:05.362Z,4.20
2023-05-01T02:40:08.376Z,4.00
2023-05-01T02:45:19.198Z,4.00
2023-05-01T02:50:23.070Z,4.10
2023-05-01T02:55:26.358Z,4.40
2023-05-01T03:00:28.684Z,4.50
2023-05-01T03:05:30.963Z,4.20
2023-05-01T03:10:33.867Z,3.90
2023-05-01T03:15:36.682Z,3.60
2023-05-01T03:20:39.775Z,3.50
2023-05-01T03:25:42.449Z,3.60
2023-05-01T03:30:45.176Z,3.60
2023-05-01T03:35:48.059Z,3.70
2023-05-01T03:40:51.259Z,3.50
2023-05-01T03:46:16.438Z,3.60
2023-05-01T03:51:19.277Z,3.50
2023-05-01T03:56:22.120Z,3.60
2023-05-01T04:01:24.698Z,3.50
2023-05-01T04:06:28.343Z,3.50
2023-05-01T04:11:30.666Z,3.60
2023-05-01T04:16:33.300Z,3.60
2023-05-01T04:21:36.605Z,4.00
2023-05-01T04:26:39.334Z,4.00
2023-05-01T04:31:43.398Z,4.20
2023-05-01T04:36:46.233Z,4.60
2023-05-01T04:41:48.572Z,4.90
2023-05-01T04:46:51.496Z,5.10
2023-05-01T04:51:54.041Z,5.20
2023-05-01T04:56:58.005Z,5.60
2023-05-01T05:02:00.471Z,5.80
2023-05-01T05:07:03.059Z,6.00
2023-05-01T05:12:25.335Z,6.30
2023-05-01T05:17:27.749Z,6.60
2023-05-01T05:22:30.613Z,6.90
2023-05-01T05:27:53.202Z,7.10
2023-05-01T05:32:56.017Z,7.30
2023-05-01T05:37:58.609Z,7.60
2023-05-01T05:43:01.788Z,7.80
2023-05-01T05:48:06.062Z,7.90
2023-05-01T05:53:11.794Z,8.10
2023-05-01T05:58:20.010Z,8.10
2023-05-01T06:03:23.759Z,8.20
2023-05-01T06:08:29.052Z,8.50
2023-05-01T06:13:32.991Z,8.70
2023-05-01T06:18:35.542Z,8.80
2023-05-01T06:23:38.295Z,8.90
2023-05-01T06:29:01.926Z,9.00
2023-05-01T06:34:04.562Z,9.10
2023-05-01T06:39:17.047Z,9.20
2023-05-01T06:44:19.364Z,9.40
2023-05-01T06:49:21.648Z,9.60
2023-05-01T06:54:24.026Z,9.70
2023-05-01T06:59:28.175Z,9.90
2023-05-01T07:04:32.145Z,10.10
2023-05-01T07:09:34.503Z,10.30
2023-05-01T07:14:36.739Z,10.40
2023-05-01T07:19:39.510Z,10.60
2023-05-01T07:24:41.909Z,10.60
2023-05-01T07:29:44.690Z,10.70
2023-05-01T07:34:46.945Z,11.00
2023-05-01T07:39:49.172Z,11.10
2023-05-01T07:44:51.799Z,11.20
2023-05-01T07:49:54.208Z,11.40
2023-05-01T07:54:56.627Z,11.60
2023-05-01T07:59:59.189Z,11.70
2023-05-01T08:05:02.846Z,11.80
2023-05-01T08:10:05.883Z,12.00
2023-05-01T08:15:08.679Z,12.30
2023-05-01T08:20:11.913Z,12.40
2023-05-01T08:25:14.849Z,12.50
2023-05-01T08:30:17.089Z,12.60
2023-05-01T08:35:19.335Z,12.50
2023-05-01T08:40:23.167Z,12.80
2023-05-01T08:45:25.888Z,13.00
2023-05-01T08:50:28.951Z,13.30
2023-05-01T08:55:34.848Z,13.30
2023-05-01T09:00:38.273Z,13.60
2023-05-01T09:05:40.831Z,13.30
2023-05-01T09:10:48.233Z,13.80
2023-05-01T09:15:50.780Z,13.80
2023-05-01T09:20:55.074Z,13.60
2023-05-01T09:25:58.149Z,13.70
2023-05-01T09:31:00.514Z,14.20
2023-05-01T09:36:03.023Z,14.40
2023-05-01T09:41:06.376Z,14.60
2023-05-01T09:46:13.072Z,14.80
2023-05-01T09:51:23.051Z,15.20
2023-05-01T09:56:29.578Z,15.70
2023-05-01T10:01:42.688Z,16.10
2023-05-01T10:06:45.351Z,16.20
2023-05-01T10:11:53.591Z,16.60
2023-05-01T10:16:59.415Z,17.00
2023-05-01T10:22:02.455Z,17.00
2023-05-01T10:27:08.327Z,17.20
2023-05-01T10:32:11.301Z,17.70
2023-05-01T10:37:19.600Z,18.10
2023-05-01T10:42:21.898Z,18.10
2023-05-01T10:47:34.738Z,18.20
2023-05-01T10:53:16.449Z,18.50
2023-05-01T10:58:37.160Z,19.00
2023-05-01T11:03:40.344Z,19.70
2023-05-01T11:08:43.608Z,20.10
2023-05-01T11:14:02.525Z,19.80
2023-05-01T11:19:07.923Z,20.00
2023-05-01T11:24:10.269Z,20.70
2023-05-01T11:29:12.875Z,20.80
2023-05-01T11:34:15.354Z,20.80
2023-05-01T11:39:18.427Z,21.00
2023-05-01T11:44:20.803Z,21.30
2023-05-01T11:49:29.519Z,22.00
2023-05-01T11:54:31.805Z,22.10
2023-05-01T11:59:34.187Z,22.20
2023-05-01T12:04:36.541Z,22.20
2023-05-01T12:09:42.146Z,22.50
2023-05-01T12:14:44.525Z,23.10
2023-05-01T12:19:51.227Z,23.60
2023-05-01T12:24:54.073Z,24.10
2023-05-01T12:29:57.360Z,23.80
2023-05-01T12:34:59.858Z,24.00
2023-05-01T12:40:02.713Z,24.90
2023-05-01T12:45:05.795Z,25.70
2023-05-01T12:50:09.574Z,26.30
2023-05-01T12:55:12.833Z,26.60
2023-05-01T13:00:15.701Z,26.80
2023-05-01T13:05:18.187Z,27.10
2023-05-01T13:10:31.531Z,27.30
2023-05-01T13:15:33.941Z,27.60
2023-05-01T13:20:38.948Z,28.70
2023-05-01T13:25:41.449Z,29.30
2023-05-01T13:30:43.950Z,29.80
2023-05-01T13:35:46.630Z,29.70
2023-05-01T13:40:49.146Z,29.60
2023-05-01T13:45:51.770Z,29.30
2023-05-01T13:50:54.113Z,30.20
2023-05-01T13:55:56.484Z,30.90
2023-05-01T14:00:58.762Z,31.10
2023-05-01T14:06:01.115Z,31.70
2023-05-01T14:11:08.368Z,31.50
2023-05-01T14:16:17.125Z,31.70
2023-05-01T14:21:19.761Z,32.00
2023-05-01T14:26:24.100Z,32.70
2023-05-01T14:31:29.306Z,31.80
2023-05-01T14:36:32.702Z,32.00
2023-05-01T14:41:38.851Z,31.00
2023-05-01T14:46:51.316Z,29.80
2023-05-01T14:51:54.501Z,28.90
2023-05-01T14:56:56.744Z,28.20
2023-05-01T15:01:59.109Z,29.00
2023-05-01T15:07:01.401Z,30.10
2023-05-01T15:12:06.067Z,30.30
2023-05-01T15:17:10.601Z,30.90
2023-05-01T15:22:12.972Z,31.40
2023-05-01T15:27:15.362Z,30.70
2023-05-01T15:32:18.990Z,28.70
2023-05-01T15:37:21.375Z,27.20
2023-05-01T15:42:23.677Z,26.50
2023-05-01T15:47:26.099Z,26.30
2023-05-01T15:52:28.533Z,27.70
2023-05-01T15:57:32.572Z,29.60
2023-05-01T16:02:34.943Z,30.90
2023-05-01T16:07:39.248Z,30.30
2023-05-01T16:12:41.500Z,30.30
2023-05-01T16:17:45.044Z,29.80
2023-05-01T16:22:47.697Z,30.60
2023-05-01T16:27:49.930Z,31.50
2023-05-01T16:32:52.310Z,31.10
2023-05-01T16:37:55.406Z,29.80
2023-05-01T16:43:02.095Z,28.40
2023-05-01T16:48:04.960Z,26.50
2023-05-01T16:53:07.286Z,25.50
2023-05-01T16:58:09.535Z,25.00
2023-05-01T17:03:11.903Z,24.90
2023-05-01T17:08:14.329Z,25.50
2023-05-01T17:13:16.808Z,26.10
2023-05-01T17:18:19.260Z,25.40
2023-05-01T17:23:22.388Z,24.30
2023-05-01T17:28:24.862Z,23.30
2023-05-01T17:33:30.504Z,22.50
2023-05-01T17:38:32.804Z,21.90
2023-05-01T17:43:35.061Z,21.50
2023-05-01T17:48:37.469Z,21.00
2023-05-01T17:53:39.877Z,20.80
2023-05-01T17:58:42.596Z,20.20
2023-05-01T18:03:45.142Z,20.00
2023-05-01T18:08:49.194Z,19.40
2023-05-01T18:13:51.469Z,19.00
2023-05-01T18:18:53.853Z,18.40
2023-05-01T18:23:56.157Z,18.00
2023-05-01T18:28:58.804Z,17.80
2023-05-01T18:34:02.088Z,17.40
2023-05-01T18:39:04.632Z,17.20
2023-05-01T18:44:06.954Z,17.10
2023-05-01T18:49:09.250Z,16.50
2023-05-01T18:54:12.290Z,16.30
2023-05-01T18:59:14.644Z,15.80
2023-05-01T19:04:18.945Z,15.70
2023-05-01T19:09:21.232Z,15.50
2023-05-01T19:14:23.608Z,15.10
2023-05-01T19:19:26.108Z,14.90
2023-05-01T19:24:28.362Z,14.80
2023-05-01T19:29:34.275Z,14.70
2023-05-01T19:34:37.133Z,14.50
2023-05-01T19:39:39.462Z,14.40
2023-05-01T19:44:41.905Z,14.70
2023-05-01T19:49:45.072Z,14.20
2023-05-01T19:54:47.620Z,14.10
2023-05-01T19:59:52.641Z,14.20
2023-05-01T20:04:55.046Z,13.80
2023-05-01T20:09:57.512Z,13.60
2023-05-01T20:15:01.371Z,13.50
2023-05-01T20:20:03.855Z,13.40
2023-05-01T20:25:09.370Z,13.20
2023-05-01T20:30:12.170Z,13.10
2023-05-01T20:35:15.130Z,13.00
2023-05-01T20:40:19.094Z,12.90
2023-05-01T20:45:21.505Z,13.00
2023-05-01T20:50:27.301Z,12.60
2023-05-01T20:55:30.022Z,12.80
2023-05-01T21:00:32.327Z,12.60
2023-05-01T21:05:34.660Z,12.50
2023-05-01T21:10:37.056Z,12.50
2023-05-01T21:15:41.393Z,12.40
2023-05-01T21:20:46.126Z,12.70
2023-05-01T21:25:48.422Z,12.50
2023-05-01T21:30:51.039Z,12.60
2023-05-01T21:35:53.640Z,12.50
2023-05-01T21:40:56.022Z,12.50
2023-05-01T21:45:58.394Z,12.50
2023-05-01T21:51:00.833Z,12.30
2023-05-01T21:56:03.485Z,12.20
2023-05-01T22:01:06.537Z,12.00
2023-05-01T22:06:08.917Z,11.90
2023-05-01T22:11:11.365Z,11.90
2023-05-01T22:16:14.047Z,11.80
2023-05-01T22:21:16.614Z,11.80
2023-05-01T22:26:18.936Z,11.70
2023-05-01T22:31:21.524Z,11.50
2023-05-01T22:36:24.259Z,11.50
2023-05-01T22:41:26.732Z,11.50
2023-05-01T22:46:29.110Z,11.40
2023-05-01T22:51:31.452Z,11.30
2023-05-01T22:56:33.705Z,11.40
2023-05-01T23:01:36.262Z,11.40
2023-05-01T23:06:39.245Z,11.10
2023-05-01T23:11:41.697Z,11.10
2023-05-01T23:16:44.584Z,11.40
2023-05-01T23:21:47.228Z,11.30
2023-05-01T23:26:49.951Z,11.80
2023-05-01T23:31:52.299Z,11.90
2023-05-01T23:36:54.937Z,12.10
2023-05-01T23:41:57.341Z,12.00
2023-05-01T23:46:59.662Z,12.10
2023-05-01T23:52:02.036Z,12.10
2023-05-01T23:57:04.356Z,12.10
